sensor_id;sensor_type;location;lat;lon;timestamp;pressure;altitude;pressure_sealevel;temperature;humidity
14818;BME280;7500;57.698;11.986;2023-03-01T00:01:09;61266.59;;;-138.17;100.00
14818;BME280;7500;57.698;11.986;2023-03-01T00:03:37;61266.59;;;-138.17;100.00
14818;BME280;7500;57.698;11.986;2023-03-01T00:06:05;61266.59;;;-138.17;100.00
14818;BME280;7500;57.698;11.986;2023-03-01T00:08:33;61266.59;;;-138.17;100.00
14818;BME280;7500;57.698;11.986;2023-03-01T00:11:01;61266.59;;;-138.17;100.00
14818;BME280;7500;57.698;11.986;2023-03-01T00:13:29;61266.59;;;-138.17;100.00
14818;BME280;7500;57.698;11.986;2023-03-01T00:15:57;61266.59;;;-138.17;100.00
14818;BME280;7500;57.698;11.986;2023-03-01T00:18:24;61266.59;;;-138.17;100.00
14818;BME280;7500;57.698;11.986;2023-03-01T00:20:52;61266.59;;;-138.17;100.00
14818;BME280;7500;57.698;11.986;2023-03-01T00:23:20;61266.59;;;-138.17;100.00
14818;BME280;7500;57.698;11.986;2023-03-01T00:25:47;61266.59;;;-138.17;100.00
14818;BME280;7500;57.698;11.986;2023-03-01T00:28:14;61266.59;;;-138.17;100.00
14818;BME280;7500;57.698;11.986;2023-03-01T00:30:41;61266.59;;;-138.17;100.00
14818;BME280;7500;57.698;11.986;2023-03-01T00:33:10;61266.59;;;-138.17;100.00
14818;BME280;7500;57.698;11.986;2023-03-01T00:35:37;61266.59;;;-138.17;100.00
14818;BME280;7500;57.698;11.986;2023-03-01T00:38:04;61266.59;;;-138.17;100.00
14818;BME280;7500;57.698;11.986;2023-03-01T00:40:33;61266.59;;;-138.17;100.00
14818;BME280;7500;57.698;11.986;2023-03-01T00:43:00;61266.59;;;-138.17;100.00
14818;BME280;7500;57.698;11.986;2023-03-01T00:45:27;61266.59;;;-138.17;100.00
14818;BME280;7500;57.698;11.986;2023-03-01T00:47:56;61266.59;;;-138.17;100.00
14818;BME280;7500;57.698;11.986;2023-03-01T00:50:24;61266.59;;;-138.17;100.00
14818;BME280;7500;57.698;11.986;2023-03-01T00:52:53;61266.59;;;-138.17;100.00
14818;BME280;7500;57.698;11.986;2023-03-01T00:55:20;61266.59;;;-138.17;100.00
14818;BME280;7500;57.698;11.986;2023-03-01T00:57:47;61266.59;;;-138.17;100.00
14818;BME280;7500;57.698;11.986;2023-03-01T01:00:15;61266.59;;;-138.17;100.00
14818;BME280;7500;57.698;11.986;2023-03-01T01:02:42;61266.59;;;-138.17;100.00
14818;BME280;7500;57.698;11.986;2023-03-01T01:05:09;61266.59;;;-138.17;100.00
14818;BME280;7500;57.698;11.986;2023-03-01T01:07:37;61266.59;;;-138.17;100.00
14818;BME280;7500;57.698;11.986;2023-03-01T01:10:06;61266.59;;;-138.17;100.00
14818;BME280;7500;57.698;11.986;2023-03-01T01:12:33;61266.59;;;-138.17;100.00
14818;BME280;7500;57.698;11.986;2023-03-01T01:15:00;61266.59;;;-138.17;100.00
14818;BME280;7500;57.698;11.986;2023-03-01T01:17:27;61266.59;;;-138.17;100.00
14818;BME280;7500;57.698;11.986;2023-03-01T01:19:54;61266.59;;;-138.17;100.00
14818;BME280;7500;57.698;11.986;2023-03-01T01:22:20;61266.59;;;-138.17;100.00
14818;BME280;7500;57.698;11.986;2023-03-01T01:24:49;61266.59;;;-138.17;100.00
14818;BME280;7500;57.698;11.986;2023-03-01T01:27:16;61266.59;;;-138.17;100.00
14818;BME280;7500;57.698;11.986;2023-03-01T01:29:43;61266.59;;;-138.17;100.00
14818;BME280;7500;57.698;11.986;2023-03-01T01:32:09;61266.59;;;-138.17;100.00
14818;BME280;7500;57.698;11.986;2023-03-01T01:34:36;61266.59;;;-138.17;100.00
14818;BME280;7500;57.698;11.986;2023-03-01T01:37:03;61266.59;;;-138.17;100.00
14818;BME280;7500;57.698;11.986;2023-03-01T01:39:33;61266.59;;;-138.17;100.00
14818;BME280;7500;57.698;11.986;2023-03-01T01:42:01;61266.59;;;-138.17;100.00
14818;BME280;7500;57.698;11.986;2023-03-01T01:44:29;61266.59;;;-138.17;100.00
14818;BME280;7500;57.698;11.986;2023-03-01T01:46:58;61266.59;;;-138.17;100.00
14818;BME280;7500;57.698;11.986;2023-03-01T01:49:30;61266.59;;;-138.17;100.00
14818;BME280;7500;57.698;11.986;2023-03-01T01:52:04;61266.59;;;-138.17;100.00
14818;BME280;7500;57.698;11.986;2023-03-01T01:54:42;61266.59;;;-138.17;100.00
14818;BME280;7500;57.698;11.986;2023-03-01T01:57:14;61266.59;;;-138.17;100.00
14818;BME280;7500;57.698;11.986;2023-03-01T01:59:45;61266.59;;;-138.17;100.00
14818;BME280;7500;57.698;11.986;2023-03-01T02:02:13;61266.59;;;-138.17;100.00
14818;BME280;7500;57.698;11.986;2023-03-01T02:04:41;61266.59;;;-138.17;100.00
14818;BME280;7500;57.698;11.986;2023-03-01T02:07:14;61266.59;;;-138.17;100.00
14818;BME280;7500;57.698;11.986;2023-03-01T02:09:44;61266.59;;;-138.17;100.00
14818;BME280;7500;57.698;11.986;2023-03-01T02:12:14;61266.59;;;-138.17;100.00
14818;BME280;7500;57.698;11.986;2023-03-01T02:14:42;61266.59;;;-138.17;100.00
14818;BME280;7500;57.698;11.986;2023-03-01T02:17:09;61266.59;;;-138.17;100.00
14818;BME280;7500;57.698;11.986;2023-03-01T02:19:48;61266.59;;;-138.17;100.00
14818;BME280;7500;57.698;11.986;2023-03-01T02:22:22;61266.59;;;-138.17;100.00
14818;BME280;7500;57.698;11.986;2023-03-01T02:25:05;61266.59;;;-138.17;100.00
14818;BME280;7500;57.698;11.986;2023-03-01T02:27:41;61266.59;;;-138.17;100.00
14818;BME280;7500;57.698;11.986;2023-03-01T02:30:13;61266.59;;;-138.17;100.00
14818;BME280;7500;57.698;11.986;2023-03-01T02:32:40;61266.59;;;-138.17;100.00
14818;BME280;7500;57.698;11.986;2023-03-01T02:35:09;61266.59;;;-138.17;100.00
14818;BME280;7500;57.698;11.986;2023-03-01T02:37:38;61266.59;;;-138.17;100.00
14818;BME280;7500;57.698;11.986;2023-03-01T02:40:08;61266.59;;;-138.17;100.00
14818;BME280;7500;57.698;11.986;2023-03-01T02:42:45;61266.59;;;-138.17;100.00
14818;BME280;7500;57.698;11.986;2023-03-01T02:45:14;61266.59;;;-138.17;100.00
14818;BME280;7500;57.698;11.986;2023-03-01T02:47:41;61266.59;;;-138.17;100.00
14818;BME280;7500;57.698;11.986;2023-03-01T02:50:18;61266.59;;;-138.17;100.00
14818;BME280;7500;57.698;11.986;2023-03-01T02:52:56;61266.59;;;-138.17;100.00
14818;BME280;7500;57.698;11.986;2023-03-01T02:55:25;61266.59;;;-138.17;100.00
14818;BME280;7500;57.698;11.986;2023-03-01T02:57:53;61266.59;;;-138.17;100.00
14818;BME280;7500;57.698;11.986;2023-03-01T03:00:24;61266.59;;;-138.17;100.00
14818;BME280;7500;57.698;11.986;2023-03-01T03:02:53;61266.59;;;-138.17;100.00
14818;BME280;7500;57.698;11.986;2023-03-01T03:05:23;61266.59;;;-138.17;100.00
14818;BME280;7500;57.698;11.986;2023-03-01T03:07:51;61266.59;;;-138.17;100.00
14818;BME280;7500;57.698;11.986;2023-03-01T03:10:20;61266.59;;;-138.17;100.00
14818;BME280;7500;57.698;11.986;2023-03-01T03:12:49;61266.59;;;-138.17;100.00
14818;BME280;7500;57.698;11.986;2023-03-01T03:15:18;61266.59;;;-138.17;100.00
14818;BME280;7500;57.698;11.986;2023-03-01T03:17:47;61266.59;;;-138.17;100.00
14818;BME280;7500;57.698;11.986;2023-03-01T03:20:17;61266.59;;;-138.17;100.00
14818;BME280;7500;57.698;11.986;2023-03-01T03:22:45;61266.59;;;-138.17;100.00
14818;BME280;7500;57.698;11.986;2023-03-01T03:25:13;61266.59;;;-138.17;100.00
14818;BME280;7500;57.698;11.986;2023-03-01T03:27:41;61266.59;;;-138.17;100.00
14818;BME280;7500;57.698;11.986;2023-03-01T03:30:12;61266.59;;;-138.17;100.00
14818;BME280;7500;57.698;11.986;2023-03-01T03:32:40;61266.59;;;-138.17;100.00
14818;BME280;7500;57.698;11.986;2023-03-01T03:35:19;61266.59;;;-138.17;100.00
14818;BME280;7500;57.698;11.986;2023-03-01T03:37:47;61266.59;;;-138.17;100.00
14818;BME280;7500;57.698;11.986;2023-03-01T03:40:33;61266.59;;;-138.17;100.00
14818;BME280;7500;57.698;11.986;2023-03-01T03:43:00;61266.59;;;-138.17;100.00
14818;BME280;7500;57.698;11.986;2023-03-01T03:45:27;61266.59;;;-138.17;100.00
14818;BME280;7500;57.698;11.986;2023-03-01T03:47:54;61266.59;;;-138.17;100.00
14818;BME280;7500;57.698;11.986;2023-03-01T03:50:22;61266.59;;;-138.17;100.00
14818;BME280;7500;57.698;11.986;2023-03-01T03:52:49;61266.59;;;-138.17;100.00
14818;BME280;7500;57.698;11.986;2023-03-01T03:55:17;61266.59;;;-138.17;100.00
14818;BME280;7500;57.698;11.986;2023-03-01T03:57:46;61266.59;;;-138.17;100.00
14818;BME280;7500;57.698;11.986;2023-03-01T04:00:18;61266.59;;;-138.17;100.00
14818;BME280;7500;57.698;11.986;2023-03-01T04:02:46;61266.59;;;-138.17;100.00
14818;BME280;7500;57.698;11.986;2023-03-01T04:05:15;61266.59;;;-138.17;100.00
14818;BME280;7500;57.698;11.986;2023-03-01T04:07:44;61266.59;;;-138.17;100.00
14818;BME280;7500;57.698;11.986;2023-03-01T04:10:14;61266.59;;;-138.17;100.00
14818;BME280;7500;57.698;11.986;2023-03-01T04:12:41;61266.59;;;-138.17;100.00
14818;BME280;7500;57.698;11.986;2023-03-01T04:15:10;61266.59;;;-138.17;100.00
14818;BME280;7500;57.698;11.986;2023-03-01T04:17:39;61266.59;;;-138.17;100.00
14818;BME280;7500;57.698;11.986;2023-03-01T04:20:08;61266.59;;;-138.17;100.00
14818;BME280;7500;57.698;11.986;2023-03-01T04:22:36;61266.59;;;-138.17;100.00
14818;BME280;7500;57.698;11.986;2023-03-01T04:25:05;61266.59;;;-138.17;100.00
14818;BME280;7500;57.698;11.986;2023-03-01T04:27:33;61266.59;;;-138.17;100.00
14818;BME280;7500;57.698;11.986;2023-03-01T04:30:00;61266.59;;;-138.17;100.00
14818;BME280;7500;57.698;11.986;2023-03-01T04:32:27;61266.59;;;-138.17;100.00
14818;BME280;7500;57.698;11.986;2023-03-01T04:34:54;61266.59;;;-138.17;100.00
14818;BME280;7500;57.698;11.986;2023-03-01T04:37:21;61266.59;;;-138.17;100.00
14818;BME280;7500;57.698;11.986;2023-03-01T04:39:49;61266.59;;;-138.17;100.00
14818;BME280;7500;57.698;11.986;2023-03-01T04:42:18;61266.59;;;-138.17;100.00
14818;BME280;7500;57.698;11.986;2023-03-01T04:44:45;61266.59;;;-138.17;100.00
14818;BME280;7500;57.698;11.986;2023-03-01T04:47:12;61266.59;;;-138.17;100.00
14818;BME280;7500;57.698;11.986;2023-03-01T04:49:39;61266.59;;;-138.17;100.00
14818;BME280;7500;57.698;11.986;2023-03-01T04:52:06;61266.59;;;-138.17;100.00
14818;BME280;7500;57.698;11.986;2023-03-01T04:54:35;61266.59;;;-138.17;100.00
14818;BME280;7500;57.698;11.986;2023-03-01T04:57:02;61266.59;;;-138.17;100.00
14818;BME280;7500;57.698;11.986;2023-03-01T04:59:31;61266.59;;;-138.17;100.00
14818;BME280;7500;57.698;11.986;2023-03-01T05:01:57;61266.59;;;-138.17;100.00
14818;BME280;7500;57.698;11.986;2023-03-01T05:04:26;61266.59;;;-138.17;100.00
14818;BME280;7500;57.698;11.986;2023-03-01T05:06:52;61266.59;;;-138.17;100.00
14818;BME280;7500;57.698;11.986;2023-03-01T05:09:21;61266.59;;;-138.17;100.00
14818;BME280;7500;57.698;11.986;2023-03-01T05:11:48;61266.59;;;-138.17;100.00
14818;BME280;7500;57.698;11.986;2023-03-01T05:14:17;61266.59;;;-138.17;100.00
14818;BME280;7500;57.698;11.986;2023-03-01T05:16:45;61266.59;;;-138.17;100.00
14818;BME280;7500;57.698;11.986;2023-03-01T05:19:12;61266.59;;;-138.17;100.00
14818;BME280;7500;57.698;11.986;2023-03-01T05:21:41;61266.59;;;-138.17;100.00
14818;BME280;7500;57.698;11.986;2023-03-01T05:24:22;61266.59;;;-138.17;100.00
14818;BME280;7500;57.698;11.986;2023-03-01T05:26:49;61266.59;;;-138.17;100.00
14818;BME280;7500;57.698;11.986;2023-03-01T05:29:17;61266.59;;;-138.17;100.00
14818;BME280;7500;57.698;11.986;2023-03-01T05:31:52;61266.59;;;-138.17;100.00
14818;BME280;7500;57.698;11.986;2023-03-01T05:34:23;61266.59;;;-138.17;100.00
14818;BME280;7500;57.698;11.986;2023-03-01T05:36:51;61266.59;;;-138.17;100.00
14818;BME280;7500;57.698;11.986;2023-03-01T05:39:19;61266.59;;;-138.17;100.00
14818;BME280;7500;57.698;11.986;2023-03-01T05:41:48;61266.59;;;-138.17;100.00
14818;BME280;7500;57.698;11.986;2023-03-01T05:44:15;61266.59;;;-138.17;100.00
14818;BME280;7500;57.698;11.986;2023-03-01T05:46:42;61266.59;;;-138.17;100.00
14818;BME280;7500;57.698;11.986;2023-03-01T05:49:11;61266.59;;;-138.17;100.00
14818;BME280;7500;57.698;11.986;2023-03-01T05:51:39;61266.59;;;-138.17;100.00
14818;BME280;7500;57.698;11.986;2023-03-01T05:54:07;61266.59;;;-138.17;100.00
14818;BME280;7500;57.698;11.986;2023-03-01T05:56:34;61266.59;;;-138.17;100.00
14818;BME280;7500;57.698;11.986;2023-03-01T05:59:02;61266.59;;;-138.17;100.00
14818;BME280;7500;57.698;11.986;2023-03-01T06:01:30;61266.59;;;-138.17;100.00
14818;BME280;7500;57.698;11.986;2023-03-01T06:03:57;61266.59;;;-138.17;100.00
14818;BME280;7500;57.698;11.986;2023-03-01T06:06:25;61266.59;;;-138.17;100.00
14818;BME280;7500;57.698;11.986;2023-03-01T06:08:53;61266.59;;;-138.17;100.00
14818;BME280;7500;57.698;11.986;2023-03-01T06:11:20;61266.59;;;-138.17;100.00
14818;BME280;7500;57.698;11.986;2023-03-01T06:13:48;61266.59;;;-138.17;100.00
14818;BME280;7500;57.698;11.986;2023-03-01T06:16:14;61266.59;;;-138.17;100.00
14818;BME280;7500;57.698;11.986;2023-03-01T06:18:41;61266.59;;;-138.17;100.00
14818;BME280;7500;57.698;11.986;2023-03-01T06:21:09;61266.59;;;-138.17;100.00
14818;BME280;7500;57.698;11.986;2023-03-01T06:23:37;61266.59;;;-138.17;100.00
14818;BME280;7500;57.698;11.986;2023-03-01T06:26:08;61266.59;;;-138.17;100.00
14818;BME280;7500;57.698;11.986;2023-03-01T06:28:35;61266.59;;;-138.17;100.00
14818;BME280;7500;57.698;11.986;2023-03-01T06:31:03;61266.59;;;-138.17;100.00
14818;BME280;7500;57.698;11.986;2023-03-01T06:33:30;61266.59;;;-138.17;100.00
14818;BME280;7500;57.698;11.986;2023-03-01T06:35:57;61266.59;;;-138.17;100.00
14818;BME280;7500;57.698;11.986;2023-03-01T06:38:24;61266.59;;;-138.17;100.00
14818;BME280;7500;57.698;11.986;2023-03-01T06:40:55;61266.59;;;-138.17;100.00
14818;BME280;7500;57.698;11.986;2023-03-01T06:43:23;61266.59;;;-138.17;100.00
14818;BME280;7500;57.698;11.986;2023-03-01T06:45:50;61266.59;;;-138.17;100.00
14818;BME280;7500;57.698;11.986;2023-03-01T06:48:17;61266.59;;;-138.17;100.00
14818;BME280;7500;57.698;11.986;2023-03-01T06:50:44;61266.59;;;-138.17;100.00
14818;BME280;7500;57.698;11.986;2023-03-01T06:53:11;61266.59;;;-138.17;100.00
14818;BME280;7500;57.698;11.986;2023-03-01T06:55:38;61266.59;;;-138.17;100.00
14818;BME280;7500;57.698;11.986;2023-03-01T06:58:06;61266.59;;;-138.17;100.00
14818;BME280;7500;57.698;11.986;2023-03-01T07:00:33;61266.59;;;-138.17;100.00
14818;BME280;7500;57.698;11.986;2023-03-01T07:03:00;61266.59;;;-138.17;100.00
14818;BME280;7500;57.698;11.986;2023-03-01T07:05:29;61266.59;;;-138.17;100.00
14818;BME280;7500;57.698;11.986;2023-03-01T07:07:56;61266.59;;;-138.17;100.00
14818;BME280;7500;57.698;11.986;2023-03-01T07:10:23;61266.59;;;-138.17;100.00
14818;BME280;7500;57.698;11.986;2023-03-01T07:12:50;61266.59;;;-138.17;100.00
14818;BME280;7500;57.698;11.986;2023-03-01T07:15:21;61266.59;;;-138.17;100.00
14818;BME280;7500;57.698;11.986;2023-03-01T07:17:48;61266.59;;;-138.17;100.00
14818;BME280;7500;57.698;11.986;2023-03-01T07:20:16;61266.59;;;-138.17;100.00
14818;BME280;7500;57.698;11.986;2023-03-01T07:22:44;61266.59;;;-138.17;100.00
14818;BME280;7500;57.698;11.986;2023-03-01T07:25:11;61266.59;;;-138.17;100.00
14818;BME280;7500;57.698;11.986;2023-03-01T07:27:38;61266.59;;;-138.17;100.00
14818;BME280;7500;57.698;11.986;2023-03-01T07:30:06;61266.59;;;-138.17;100.00
14818;BME280;7500;57.698;11.986;2023-03-01T07:32:34;61266.59;;;-138.17;100.00
14818;BME280;7500;57.698;11.986;2023-03-01T07:35:01;61266.59;;;-138.17;100.00
14818;BME280;7500;57.698;11.986;2023-03-01T07:37:28;61266.59;;;-138.17;100.00
14818;BME280;7500;57.698;11.986;2023-03-01T07:39:55;61266.59;;;-138.17;100.00
14818;BME280;7500;57.698;11.986;2023-03-01T07:42:23;61266.59;;;-138.17;100.00
14818;BME280;7500;57.698;11.986;2023-03-01T07:44:50;61266.59;;;-138.17;100.00
14818;BME280;7500;57.698;11.986;2023-03-01T07:47:16;61266.59;;;-138.17;100.00
14818;BME280;7500;57.698;11.986;2023-03-01T07:49:45;61266.59;;;-138.17;100.00
14818;BME280;7500;57.698;11.986;2023-03-01T07:52:12;61266.59;;;-138.17;100.00
14818;BME280;7500;57.698;11.986;2023-03-01T07:54:39;61266.59;;;-138.17;100.00
14818;BME280;7500;57.698;11.986;2023-03-01T07:57:08;61266.59;;;-138.17;100.00
14818;BME280;7500;57.698;11.986;2023-03-01T07:59:35;61266.59;;;-138.17;100.00
14818;BME280;7500;57.698;11.986;2023-03-01T08:02:02;61266.59;;;-138.17;100.00
14818;BME280;7500;57.698;11.986;2023-03-01T08:04:29;61266.59;;;-138.17;100.00
14818;BME280;7500;57.698;11.986;2023-03-01T08:06:57;61266.59;;;-138.17;100.00
14818;BME280;7500;57.698;11.986;2023-03-01T08:09:25;61266.59;;;-138.17;100.00
14818;BME280;7500;57.698;11.986;2023-03-01T08:11:51;61266.59;;;-138.17;100.00
14818;BME280;7500;57.698;11.986;2023-03-01T08:14:19;61266.59;;;-138.17;100.00
14818;BME280;7500;57.698;11.986;2023-03-01T08:16:49;61266.59;;;-138.17;100.00
14818;BME280;7500;57.698;11.986;2023-03-01T08:19:15;61266.59;;;-138.17;100.00
14818;BME280;7500;57.698;11.986;2023-03-01T08:21:42;61266.59;;;-138.17;100.00
14818;BME280;7500;57.698;11.986;2023-03-01T08:24:11;61266.59;;;-138.17;100.00
14818;BME280;7500;57.698;11.986;2023-03-01T08:26:38;61266.59;;;-138.17;100.00
14818;BME280;7500;57.698;11.986;2023-03-01T08:29:05;61266.59;;;-138.17;100.00
14818;BME280;7500;57.698;11.986;2023-03-01T08:31:33;61266.59;;;-138.17;100.00
14818;BME280;7500;57.698;11.986;2023-03-01T08:34:03;61266.59;;;-138.17;100.00
14818;BME280;7500;57.698;11.986;2023-03-01T08:36:32;61266.59;;;-138.17;100.00
14818;BME280;7500;57.698;11.986;2023-03-01T08:39:01;61266.59;;;-138.17;100.00
14818;BME280;7500;57.698;11.986;2023-03-01T08:41:30;61266.59;;;-138.17;100.00
14818;BME280;7500;57.698;11.986;2023-03-01T08:43:57;61266.59;;;-138.17;100.00
14818;BME280;7500;57.698;11.986;2023-03-01T08:46:35;103245.41;;;4.79;100.00
14818;BME280;7500;57.698;11.986;2023-03-01T08:49:03;103244.56;;;4.85;100.00
14818;BME280;7500;57.698;11.986;2023-03-01T08:51:31;103242.03;;;4.89;100.00
14818;BME280;7500;57.698;11.986;2023-03-01T08:54:02;103249.06;;;4.95;100.00
14818;BME280;7500;57.698;11.986;2023-03-01T08:56:29;103239.53;;;5.00;100.00
14818;BME280;7500;57.698;11.986;2023-03-01T08:58:56;103242.16;;;5.01;100.00
14818;BME280;7500;57.698;11.986;2023-03-01T09:01:23;103240.41;;;5.03;100.00
14818;BME280;7500;57.698;11.986;2023-03-01T09:03:51;103248.34;;;5.08;100.00
14818;BME280;7500;57.698;11.986;2023-03-01T09:06:18;103247.44;;;5.07;100.00
14818;BME280;7500;57.698;11.986;2023-03-01T09:08:47;103241.34;;;5.08;100.00
14818;BME280;7500;57.698;11.986;2023-03-01T09:11:16;103234.41;;;5.12;100.00
14818;BME280;7500;57.698;11.986;2023-03-01T09:13:44;103229.19;;;5.15;100.00
14818;BME280;7500;57.698;11.986;2023-03-01T09:16:13;103232.72;;;5.17;100.00
14818;BME280;7500;57.698;11.986;2023-03-01T09:18:40;103237.13;;;5.21;100.00
14818;BME280;7500;57.698;11.986;2023-03-01T09:21:10;103227.56;;;5.26;100.00
14818;BME280;7500;57.698;11.986;2023-03-01T09:23:38;103231.16;;;5.34;100.00
14818;BME280;7500;57.698;11.986;2023-03-01T09:26:06;103224.22;;;5.39;100.00
14818;BME280;7500;57.698;11.986;2023-03-01T09:28:34;103217.25;;;5.41;100.00
14818;BME280;7500;57.698;11.986;2023-03-01T09:31:02;103226.00;;;5.46;100.00
14818;BME280;7500;57.698;11.986;2023-03-01T09:33:30;103221.69;;;5.51;100.00
14818;BME280;7500;57.698;11.986;2023-03-01T09:35:58;103224.34;;;5.52;100.00
14818;BME280;7500;57.698;11.986;2023-03-01T09:38:27;103226.06;;;5.52;100.00
14818;BME280;7500;57.698;11.986;2023-03-01T09:40:54;103222.53;;;5.50;100.00
14818;BME280;7500;57.698;11.986;2023-03-01T09:43:25;103221.75;;;5.61;100.00
14818;BME280;7500;57.698;11.986;2023-03-01T09:45:58;103204.31;;;5.60;100.00
14818;BME280;7500;57.698;11.986;2023-03-01T09:48:31;103212.22;;;5.67;100.00
14818;BME280;7500;57.698;11.986;2023-03-01T09:51:01;103219.25;;;5.71;100.00
14818;BME280;7500;57.698;11.986;2023-03-01T09:53:35;103216.66;;;5.74;100.00
14818;BME280;7500;57.698;11.986;2023-03-01T09:56:05;103193.81;;;5.63;100.00
14818;BME280;7500;57.698;11.986;2023-03-01T09:58:47;103221.97;;;5.82;100.00
14818;BME280;7500;57.698;11.986;2023-03-01T10:01:28;103227.28;;;5.92;100.00
14818;BME280;7500;57.698;11.986;2023-03-01T10:04:26;103223.81;;;5.95;100.00
14818;BME280;7500;57.698;11.986;2023-03-01T10:07:03;103229.16;;;6.05;100.00
14818;BME280;7500;57.698;11.986;2023-03-01T10:09:35;103218.69;;;6.11;100.00
14818;BME280;7500;57.698;11.986;2023-03-01T10:12:08;103211.69;;;6.13;100.00
14818;BME280;7500;57.698;11.986;2023-03-01T10:14:39;103214.38;;;6.22;100.00
14818;BME280;7500;57.698;11.986;2023-03-01T10:17:18;103203.00;;;6.19;100.00
14818;BME280;7500;57.698;11.986;2023-03-01T10:19:50;103210.00;;;6.24;100.00
14818;BME280;7500;57.698;11.986;2023-03-01T10:22:19;103196.91;;;6.27;100.00
14818;BME280;7500;57.698;11.986;2023-03-01T10:24:49;103210.97;;;6.38;100.00
14818;BME280;7500;57.698;11.986;2023-03-01T10:27:20;103215.34;;;6.39;100.00
14818;BME280;7500;57.698;11.986;2023-03-01T10:29:52;103215.38;;;6.45;100.00
14818;BME280;7500;57.698;11.986;2023-03-01T10:32:23;103206.66;;;6.51;100.00
14818;BME280;7500;57.698;11.986;2023-03-01T10:34:49;103197.03;;;6.54;100.00
14818;BME280;7500;57.698;11.986;2023-03-01T10:37:18;103197.88;;;6.44;100.00
14818;BME280;7500;57.698;11.986;2023-03-01T10:40:03;103226.78;;;6.59;100.00
14818;BME280;7500;57.698;11.986;2023-03-01T10:42:35;103208.44;;;6.62;100.00
14818;BME280;7500;57.698;11.986;2023-03-01T10:45:30;103208.47;;;6.69;100.00
14818;BME280;7500;57.698;11.986;2023-03-01T10:48:05;103196.22;;;6.70;100.00
14818;BME280;7500;57.698;11.986;2023-03-01T10:50:33;103198.81;;;6.68;100.00
14818;BME280;7500;57.698;11.986;2023-03-01T10:53:01;103198.84;;;6.67;100.00
14818;BME280;7500;57.698;11.986;2023-03-01T10:55:34;103201.50;;;6.79;100.00
14818;BME280;7500;57.698;11.986;2023-03-01T10:58:16;103201.50;;;6.85;100.00
14818;BME280;7500;57.698;11.986;2023-03-01T11:00:50;103192.78;;;6.90;100.00
14818;BME280;7500;57.698;11.986;2023-03-01T11:03:20;103190.16;;;6.99;100.00
14818;BME280;7500;57.698;11.986;2023-03-01T11:05:57;103184.03;;;7.03;100.00
14818;BME280;7500;57.698;11.986;2023-03-01T11:08:46;103188.44;;;7.09;100.00
14818;BME280;7500;57.698;11.986;2023-03-01T11:11:25;103186.72;;;7.11;100.00
14818;BME280;7500;57.698;11.986;2023-03-01T11:13:57;103188.44;;;7.16;100.00
14818;BME280;7500;57.698;11.986;2023-03-01T11:16:31;103188.44;;;7.15;100.00
14818;BME280;7500;57.698;11.986;2023-03-01T11:19:04;103189.31;;;7.11;100.00
14818;BME280;7500;57.698;11.986;2023-03-01T11:21:42;103192.81;;;7.10;100.00
14818;BME280;7500;57.698;11.986;2023-03-01T11:24:13;103195.47;;;7.10;100.00
14818;BME280;7500;57.698;11.986;2023-03-01T11:26:44;103177.91;;;6.97;100.00
14818;BME280;7500;57.698;11.986;2023-03-01T11:29:18;103191.94;;;7.20;100.00
14818;BME280;7500;57.698;11.986;2023-03-01T11:31:48;103187.56;;;7.28;100.00
14818;BME280;7500;57.698;11.986;2023-03-01T11:34:19;103184.97;;;7.34;100.00
14818;BME280;7500;57.698;11.986;2023-03-01T11:36:53;103181.47;;;7.45;100.00
14818;BME280;7500;57.698;11.986;2023-03-01T11:39:28;103177.97;;;7.39;100.00
14818;BME280;7500;57.698;11.986;2023-03-01T11:42:06;103183.19;;;7.51;100.00
14818;BME280;7500;57.698;11.986;2023-03-01T11:44:37;103177.94;;;7.54;100.00
14818;BME280;7500;57.698;11.986;2023-03-01T11:47:28;103173.56;;;7.62;100.00
14818;BME280;7500;57.698;11.986;2023-03-01T11:50:10;103169.19;;;7.58;100.00
14818;BME280;7500;57.698;11.986;2023-03-01T11:52:48;103170.94;;;7.56;100.00
14818;BME280;7500;57.698;11.986;2023-03-01T11:55:29;103151.66;;;7.60;100.00
14818;BME280;7500;57.698;11.986;2023-03-01T11:58:14;103160.41;;;7.65;100.00
14818;BME280;7500;57.698;11.986;2023-03-01T12:00:55;103153.41;;;7.73;100.00
14818;BME280;7500;57.698;11.986;2023-03-01T12:03:32;103157.78;;;7.80;100.00
14818;BME280;7500;57.698;11.986;2023-03-01T12:06:30;103155.13;;;7.81;100.00
14818;BME280;7500;57.698;11.986;2023-03-01T12:09:20;103154.25;;;7.85;100.00
14818;BME280;7500;57.698;11.986;2023-03-01T12:12:00;103152.47;;;7.94;100.00
14818;BME280;7500;57.698;11.986;2023-03-01T12:14:47;103146.31;;;8.04;100.00
14818;BME280;7500;57.698;11.986;2023-03-01T12:17:52;103145.44;;;8.08;100.00
14818;BME280;7500;57.698;11.986;2023-03-01T12:20:29;103145.38;;;8.16;100.00
14818;BME280;7500;57.698;11.986;2023-03-01T12:23:15;103072.75;;;7.81;100.00
14818;BME280;7500;57.698;11.986;2023-03-01T12:25:51;103136.59;;;8.27;100.00
14818;BME280;7500;57.698;11.986;2023-03-01T12:28:48;103147.13;;;8.27;100.00
14818;BME280;7500;57.698;11.986;2023-03-01T12:31:46;103145.31;;;8.37;100.00
14818;BME280;7500;57.698;11.986;2023-03-01T12:34:27;103133.91;;;8.42;100.00
14818;BME280;7500;57.698;11.986;2023-03-01T12:37:14;103127.75;;;8.49;100.00
14818;BME280;7500;57.698;11.986;2023-03-01T12:39:52;103125.13;;;8.49;100.00
14818;BME280;7500;57.698;11.986;2023-03-01T12:42:26;103085.72;;;8.30;100.00
14818;BME280;7500;57.698;11.986;2023-03-01T12:48:09;103131.19;;;8.62;100.00
14818;BME280;7500;57.698;11.986;2023-03-01T12:50:41;103114.50;;;8.61;100.00
14818;BME280;7500;57.698;11.986;2023-03-01T12:53:19;103119.72;;;8.70;100.00
14818;BME280;7500;57.698;11.986;2023-03-01T12:55:48;103114.41;;;8.76;100.00